LIPE/BLQ METAR and TAF weather

Enter ICAO airport designator
Station Type Date Time Source
LIPE METAR 2020/01/20 10:20 UTC NOAA

LIPE 201020Z 29005KT 260V330 CAVOK 06/03 Q1041


Station Type Date Time Source
LIPE Decoded METAR 2020/01/20 10:20 UTC NOAA

Bologna / Borgo Panigale, Italy (LIPE) 44-32N 011-18E 49M
Jan 20, 2020 - 05:20 AM EST / 2020.01.20 1020 UTC
Wind: from the WNW (290 degrees) at 6 MPH (5 KT) (direction variable):0
Visibility: greater than 7 mile(s):0
Temperature: 42 F (6 C)
Dew Point: 37 F (3 C)
Relative Humidity: 81%
Pressure (altimeter): 30.74 in. Hg (1041 hPa)
ob: LIPE 201020Z 29005KT 260V330 CAVOK 06/03 Q1041
cycle: 10

Station Type Date Time Source
LIPE TAF 2020/01/20 06:21 UTC NOAA

TAF LIPE 200500Z 2006/2106 VRB05KT 9999 FEW020

Example: see airport list